sensor_id;sensor_type;location;lat;lon;timestamp;P1;durP1;ratioP1;P2;durP2;ratioP2
44694;SDS011;32845;59.422;17.930;2022-12-29T00:01:05;49.92;;;2.88;;
44694;SDS011;32845;59.422;17.930;2022-12-29T00:05:35;38.63;;;1.92;;
44694;SDS011;32845;59.422;17.930;2022-12-29T00:10:06;60.00;;;1.85;;
44694;SDS011;32845;59.422;17.930;2022-12-29T00:14:37;38.88;;;1.40;;
44694;SDS011;32845;59.422;17.930;2022-12-29T00:19:26;77.10;;;2.43;;
44694;SDS011;32845;59.422;17.930;2022-12-29T00:24:17;47.00;;;1.75;;
44694;SDS011;32845;59.422;17.930;2022-12-29T00:29:12;42.35;;;1.73;;
44694;SDS011;32845;59.422;17.930;2022-12-29T00:34:02;38.80;;;1.40;;
44694;SDS011;32845;59.422;17.930;2022-12-29T00:39:05;31.67;;;1.08;;
44694;SDS011;32845;59.422;17.930;2022-12-29T00:44:03;18.30;;;1.20;;
44694;SDS011;32845;59.422;17.930;2022-12-29T00:48:45;13.98;;;1.48;;
44694;SDS011;32845;59.422;17.930;2022-12-29T00:53:35;33.20;;;2.03;;
44694;SDS011;32845;59.422;17.930;2022-12-29T00:58:10;34.75;;;1.63;;
44694;SDS011;32845;59.422;17.930;2022-12-29T01:02:41;21.73;;;1.23;;
44694;SDS011;32845;59.422;17.930;2022-12-29T01:07:12;39.10;;;1.25;;
44694;SDS011;32845;59.422;17.930;2022-12-29T01:11:42;32.55;;;1.40;;
44694;SDS011;32845;59.422;17.930;2022-12-29T01:16:13;21.52;;;0.90;;
44694;SDS011;32845;59.422;17.930;2022-12-29T01:20:49;11.60;;;0.90;;
44694;SDS011;32845;59.422;17.930;2022-12-29T01:25:20;24.73;;;1.55;;
44694;SDS011;32845;59.422;17.930;2022-12-29T01:29:50;64.53;;;2.80;;
44694;SDS011;32845;59.422;17.930;2022-12-29T01:34:21;40.60;;;1.27;;
44694;SDS011;32845;59.422;17.930;2022-12-29T01:38:52;34.35;;;1.50;;
44694;SDS011;32845;59.422;17.930;2022-12-29T01:43:42;42.80;;;1.50;;
44694;SDS011;32845;59.422;17.930;2022-12-29T01:48:18;24.15;;;1.10;;
44694;SDS011;32845;59.422;17.930;2022-12-29T01:53:00;27.40;;;1.60;;
44694;SDS011;32845;59.422;17.930;2022-12-29T01:57:38;32.65;;;1.67;;
44694;SDS011;32845;59.422;17.930;2022-12-29T02:02:13;37.15;;;1.58;;
44694;SDS011;32845;59.422;17.930;2022-12-29T02:06:55;61.42;;;1.80;;
44694;SDS011;32845;59.422;17.930;2022-12-29T02:11:30;39.58;;;1.77;;
44694;SDS011;32845;59.422;17.930;2022-12-29T02:49:40;40.20;;;1.83;;
44694;SDS011;32845;59.422;17.930;2022-12-29T02:54:19;61.20;;;2.50;;
44694;SDS011;32845;59.422;17.930;2022-12-29T02:59:13;45.43;;;2.53;;
44694;SDS011;32845;59.422;17.930;2022-12-29T03:23:24;31.52;;;3.00;;
44694;SDS011;32845;59.422;17.930;2022-12-29T03:28:01;35.50;;;2.90;;
44694;SDS011;32845;59.422;17.930;2022-12-29T03:32:40;10.82;;;3.55;;
44694;SDS011;32845;59.422;17.930;2022-12-29T03:37:20;9.70;;;3.65;;
44694;SDS011;32845;59.422;17.930;2022-12-29T03:41:56;12.05;;;3.45;;
44694;SDS011;32845;59.422;17.930;2022-12-29T03:46:31;8.68;;;3.50;;
44694;SDS011;32845;59.422;17.930;2022-12-29T03:51:07;14.57;;;4.22;;
44694;SDS011;32845;59.422;17.930;2022-12-29T03:55:37;10.35;;;3.35;;
44694;SDS011;32845;59.422;17.930;2022-12-29T04:00:08;10.57;;;3.63;;
44694;SDS011;32845;59.422;17.930;2022-12-29T04:04:40;10.80;;;3.97;;
44694;SDS011;32845;59.422;17.930;2022-12-29T04:09:10;11.98;;;3.95;;
44694;SDS011;32845;59.422;17.930;2022-12-29T04:13:41;11.05;;;4.40;;
44694;SDS011;32845;59.422;17.930;2022-12-29T04:18:12;9.50;;;3.90;;
44694;SDS011;32845;59.422;17.930;2022-12-29T04:22:43;7.65;;;3.63;;
44694;SDS011;32845;59.422;17.930;2022-12-29T04:27:13;7.90;;;3.92;;
44694;SDS011;32845;59.422;17.930;2022-12-29T04:31:44;14.48;;;4.30;;
44694;SDS011;32845;59.422;17.930;2022-12-29T04:36:15;11.00;;;3.50;;
44694;SDS011;32845;59.422;17.930;2022-12-29T04:40:51;9.05;;;3.55;;
44694;SDS011;32845;59.422;17.930;2022-12-29T04:45:22;7.88;;;3.72;;
44694;SDS011;32845;59.422;17.930;2022-12-29T04:49:52;9.45;;;3.78;;
44694;SDS011;32845;59.422;17.930;2022-12-29T04:54:23;7.35;;;4.10;;
44694;SDS011;32845;59.422;17.930;2022-12-29T04:58:54;12.10;;;3.88;;
44694;SDS011;32845;59.422;17.930;2022-12-29T05:03:24;9.80;;;4.07;;
44694;SDS011;32845;59.422;17.930;2022-12-29T05:07:55;13.10;;;4.40;;
44694;SDS011;32845;59.422;17.930;2022-12-29T05:12:29;10.18;;;3.63;;
44694;SDS011;32845;59.422;17.930;2022-12-29T05:17:00;11.27;;;4.20;;
44694;SDS011;32845;59.422;17.930;2022-12-29T05:21:31;8.15;;;3.72;;
44694;SDS011;32845;59.422;17.930;2022-12-29T05:26:02;5.95;;;3.10;;
44694;SDS011;32845;59.422;17.930;2022-12-29T05:30:32;8.35;;;2.95;;
44694;SDS011;32845;59.422;17.930;2022-12-29T05:35:03;10.70;;;3.53;;
44694;SDS011;32845;59.422;17.930;2022-12-29T05:39:34;10.35;;;3.35;;
44694;SDS011;32845;59.422;17.930;2022-12-29T05:44:05;12.02;;;3.90;;
44694;SDS011;32845;59.422;17.930;2022-12-29T05:48:41;8.05;;;3.90;;
44694;SDS011;32845;59.422;17.930;2022-12-29T05:53:11;5.43;;;3.33;;
44694;SDS011;32845;59.422;17.930;2022-12-29T05:57:47;13.13;;;3.83;;
44694;SDS011;32845;59.422;17.930;2022-12-29T06:02:18;10.25;;;3.90;;
44694;SDS011;32845;59.422;17.930;2022-12-29T06:06:48;8.63;;;3.92;;
44694;SDS011;32845;59.422;17.930;2022-12-29T06:11:19;8.98;;;3.75;;
44694;SDS011;32845;59.422;17.930;2022-12-29T06:15:50;16.35;;;4.97;;
44694;SDS011;32845;59.422;17.930;2022-12-29T06:20:26;10.32;;;4.03;;
44694;SDS011;32845;59.422;17.930;2022-12-29T06:24:57;9.80;;;4.38;;
44694;SDS011;32845;59.422;17.930;2022-12-29T06:29:28;8.20;;;3.63;;
44694;SDS011;32845;59.422;17.930;2022-12-29T06:33:59;15.30;;;4.10;;
44694;SDS011;32845;59.422;17.930;2022-12-29T06:38:29;10.30;;;3.53;;
44694;SDS011;32845;59.422;17.930;2022-12-29T06:43:00;14.02;;;4.40;;
44694;SDS011;32845;59.422;17.930;2022-12-29T06:47:31;10.63;;;3.65;;
44694;SDS011;32845;59.422;17.930;2022-12-29T06:52:02;13.82;;;4.40;;
44694;SDS011;32845;59.422;17.930;2022-12-29T06:56:34;12.50;;;3.70;;
44694;SDS011;32845;59.422;17.930;2022-12-29T07:01:10;17.30;;;3.75;;
44694;SDS011;32845;59.422;17.930;2022-12-29T07:05:40;14.88;;;4.75;;
44694;SDS011;32845;59.422;17.930;2022-12-29T07:10:11;18.90;;;4.55;;
44694;SDS011;32845;59.422;17.930;2022-12-29T07:14:42;20.95;;;5.03;;
44694;SDS011;32845;59.422;17.930;2022-12-29T07:19:13;16.00;;;4.70;;
44694;SDS011;32845;59.422;17.930;2022-12-29T07:23:44;17.80;;;4.50;;
44694;SDS011;32845;59.422;17.930;2022-12-29T07:28:14;15.52;;;4.63;;
44694;SDS011;32845;59.422;17.930;2022-12-29T07:32:45;14.55;;;5.18;;
44694;SDS011;32845;59.422;17.930;2022-12-29T07:37:16;21.10;;;4.68;;
44694;SDS011;32845;59.422;17.930;2022-12-29T07:41:47;26.73;;;5.18;;
44694;SDS011;32845;59.422;17.930;2022-12-29T07:46:17;11.05;;;5.00;;
44694;SDS011;32845;59.422;17.930;2022-12-29T07:50:53;22.67;;;5.15;;
44694;SDS011;32845;59.422;17.930;2022-12-29T07:55:24;19.50;;;5.35;;
44694;SDS011;32845;59.422;17.930;2022-12-29T07:59:54;25.60;;;5.95;;
44694;SDS011;32845;59.422;17.930;2022-12-29T08:04:25;20.13;;;4.75;;
44694;SDS011;32845;59.422;17.930;2022-12-29T08:08:56;12.38;;;5.03;;
44694;SDS011;32845;59.422;17.930;2022-12-29T08:13:27;24.20;;;4.93;;
44694;SDS011;32845;59.422;17.930;2022-12-29T08:17:58;18.60;;;4.45;;
44694;SDS011;32845;59.422;17.930;2022-12-29T08:22:28;14.95;;;4.55;;
44694;SDS011;32845;59.422;17.930;2022-12-29T08:26:59;11.20;;;4.10;;
44694;SDS011;32845;59.422;17.930;2022-12-29T08:31:30;8.80;;;3.63;;
44694;SDS011;32845;59.422;17.930;2022-12-29T08:36:01;8.82;;;3.22;;
44694;SDS011;32845;59.422;17.930;2022-12-29T08:40:34;15.32;;;3.50;;
44694;SDS011;32845;59.422;17.930;2022-12-29T08:45:05;5.95;;;2.92;;
44694;SDS011;32845;59.422;17.930;2022-12-29T08:49:36;18.20;;;3.45;;
44694;SDS011;32845;59.422;17.930;2022-12-29T08:54:07;10.38;;;2.67;;
44694;SDS011;32845;59.422;17.930;2022-12-29T08:58:38;8.77;;;2.80;;
44694;SDS011;32845;59.422;17.930;2022-12-29T09:03:08;6.93;;;3.05;;
44694;SDS011;32845;59.422;17.930;2022-12-29T09:07:39;10.13;;;3.00;;
44694;SDS011;32845;59.422;17.930;2022-12-29T09:12:10;10.02;;;2.80;;
44694;SDS011;32845;59.422;17.930;2022-12-29T09:16:41;18.88;;;3.08;;
44694;SDS011;32845;59.422;17.930;2022-12-29T09:21:30;5.28;;;2.53;;
44694;SDS011;32845;59.422;17.930;2022-12-29T09:26:01;11.70;;;2.25;;
44694;SDS011;32845;59.422;17.930;2022-12-29T09:30:32;10.52;;;2.33;;
44694;SDS011;32845;59.422;17.930;2022-12-29T09:35:03;6.53;;;1.65;;
44694;SDS011;32845;59.422;17.930;2022-12-29T09:39:39;6.43;;;1.70;;
44694;SDS011;32845;59.422;17.930;2022-12-29T09:44:23;5.10;;;1.67;;
44694;SDS011;32845;59.422;17.930;2022-12-29T09:49:09;3.08;;;1.17;;
44694;SDS011;32845;59.422;17.930;2022-12-29T09:53:53;5.43;;;1.27;;
44694;SDS011;32845;59.422;17.930;2022-12-29T09:58:30;3.60;;;1.55;;
44694;SDS011;32845;59.422;17.930;2022-12-29T10:03:05;6.97;;;1.40;;
44694;SDS011;32845;59.422;17.930;2022-12-29T10:07:45;5.72;;;1.15;;
44694;SDS011;32845;59.422;17.930;2022-12-29T10:22:22;7.03;;;2.10;;
44694;SDS011;32845;59.422;17.930;2022-12-29T10:27:13;3.55;;;2.00;;
44694;SDS011;32845;59.422;17.930;2022-12-29T10:31:59;12.68;;;2.55;;
44694;SDS011;32845;59.422;17.930;2022-12-29T10:36:37;7.15;;;2.10;;
44694;SDS011;32845;59.422;17.930;2022-12-29T10:41:13;3.28;;;2.20;;
44694;SDS011;32845;59.422;17.930;2022-12-29T10:45:49;6.95;;;2.05;;
44694;SDS011;32845;59.422;17.930;2022-12-29T10:50:21;10.15;;;2.28;;
44694;SDS011;32845;59.422;17.930;2022-12-29T10:55:00;5.32;;;2.05;;
44694;SDS011;32845;59.422;17.930;2022-12-29T10:59:36;7.90;;;2.20;;
44694;SDS011;32845;59.422;17.930;2022-12-29T11:04:17;4.28;;;1.73;;
44694;SDS011;32845;59.422;17.930;2022-12-29T11:09:10;6.28;;;1.85;;
44694;SDS011;32845;59.422;17.930;2022-12-29T11:13:50;11.15;;;1.92;;
44694;SDS011;32845;59.422;17.930;2022-12-29T11:23:03;7.05;;;1.33;;
44694;SDS011;32845;59.422;17.930;2022-12-29T11:27:36;2.97;;;1.67;;
44694;SDS011;32845;59.422;17.930;2022-12-29T11:32:11;7.15;;;1.52;;
44694;SDS011;32845;59.422;17.930;2022-12-29T11:36:47;7.40;;;1.17;;
44694;SDS011;32845;59.422;17.930;2022-12-29T11:41:29;6.40;;;1.38;;
44694;SDS011;32845;59.422;17.930;2022-12-29T11:46:01;1.90;;;1.08;;
44694;SDS011;32845;59.422;17.930;2022-12-29T11:50:34;3.10;;;1.60;;
44694;SDS011;32845;59.422;17.930;2022-12-29T11:55:16;2.22;;;1.05;;
44694;SDS011;32845;59.422;17.930;2022-12-29T11:59:54;7.00;;;1.25;;
44694;SDS011;32845;59.422;17.930;2022-12-29T12:04:30;6.43;;;1.52;;
44694;SDS011;32845;59.422;17.930;2022-12-29T12:09:09;5.93;;;3.30;;
44694;SDS011;32845;59.422;17.930;2022-12-29T12:13:50;8.63;;;3.70;;
44694;SDS011;32845;59.422;17.930;2022-12-29T12:23:14;14.93;;;4.72;;
44694;SDS011;32845;59.422;17.930;2022-12-29T12:28:13;7.53;;;3.92;;
44694;SDS011;32845;59.422;17.930;2022-12-29T12:37:38;5.72;;;2.92;;
44694;SDS011;32845;59.422;17.930;2022-12-29T12:42:32;8.50;;;2.10;;
44694;SDS011;32845;59.422;17.930;2022-12-29T12:47:31;3.40;;;1.58;;
44694;SDS011;32845;59.422;17.930;2022-12-29T13:26:35;2.83;;;1.33;;
44694;SDS011;32845;59.422;17.930;2022-12-29T13:41:11;2.47;;;1.35;;
44694;SDS011;32845;59.422;17.930;2022-12-29T13:46:09;10.27;;;1.50;;
44694;SDS011;32845;59.422;17.930;2022-12-29T13:50:45;5.43;;;1.30;;
44694;SDS011;32845;59.422;17.930;2022-12-29T14:00:14;6.97;;;2.80;;
44694;SDS011;32845;59.422;17.930;2022-12-29T14:05:04;4.50;;;1.42;;
44694;SDS011;32845;59.422;17.930;2022-12-29T14:09:56;3.63;;;1.02;;
44694;SDS011;32845;59.422;17.930;2022-12-29T14:14:28;2.67;;;1.23;;
44694;SDS011;32845;59.422;17.930;2022-12-29T14:19:04;2.63;;;1.13;;
44694;SDS011;32845;59.422;17.930;2022-12-29T14:23:48;3.15;;;1.15;;
44694;SDS011;32845;59.422;17.930;2022-12-29T14:28:27;6.63;;;1.30;;
44694;SDS011;32845;59.422;17.930;2022-12-29T14:33:00;3.00;;;1.30;;
44694;SDS011;32845;59.422;17.930;2022-12-29T14:37:34;2.22;;;1.30;;
44694;SDS011;32845;59.422;17.930;2022-12-29T14:51:29;4.93;;;1.50;;
44694;SDS011;32845;59.422;17.930;2022-12-29T14:56:04;6.07;;;2.17;;
44694;SDS011;32845;59.422;17.930;2022-12-29T15:00:35;7.57;;;2.40;;
44694;SDS011;32845;59.422;17.930;2022-12-29T15:05:20;5.05;;;2.22;;
44694;SDS011;32845;59.422;17.930;2022-12-29T15:10:11;6.97;;;2.55;;
44694;SDS011;32845;59.422;17.930;2022-12-29T15:14:55;7.18;;;2.90;;
44694;SDS011;32845;59.422;17.930;2022-12-29T15:19:27;7.80;;;3.08;;
44694;SDS011;32845;59.422;17.930;2022-12-29T15:23:58;5.30;;;3.05;;
44694;SDS011;32845;59.422;17.930;2022-12-29T15:28:43;8.77;;;3.35;;
44694;SDS011;32845;59.422;17.930;2022-12-29T15:33:18;5.28;;;3.33;;
44694;SDS011;32845;59.422;17.930;2022-12-29T15:37:51;6.28;;;2.78;;
44694;SDS011;32845;59.422;17.930;2022-12-29T15:51:37;6.72;;;2.25;;
44694;SDS011;32845;59.422;17.930;2022-12-29T15:56:09;3.28;;;2.33;;
44694;SDS011;32845;59.422;17.930;2022-12-29T16:01:00;7.55;;;2.50;;
44694;SDS011;32845;59.422;17.930;2022-12-29T16:05:35;4.43;;;2.15;;
44694;SDS011;32845;59.422;17.930;2022-12-29T16:15:07;5.45;;;1.75;;
44694;SDS011;32845;59.422;17.930;2022-12-29T16:19:45;4.78;;;1.65;;
44694;SDS011;32845;59.422;17.930;2022-12-29T16:24:23;3.60;;;1.58;;
44694;SDS011;32845;59.422;17.930;2022-12-29T16:28:57;3.08;;;2.10;;
44694;SDS011;32845;59.422;17.930;2022-12-29T16:33:47;5.53;;;1.77;;
44694;SDS011;32845;59.422;17.930;2022-12-29T16:38:30;3.75;;;1.45;;
44694;SDS011;32845;59.422;17.930;2022-12-29T16:43:03;5.07;;;1.75;;
44694;SDS011;32845;59.422;17.930;2022-12-29T16:47:34;7.30;;;1.85;;
44694;SDS011;32845;59.422;17.930;2022-12-29T16:52:28;7.65;;;2.47;;
44694;SDS011;32845;59.422;17.930;2022-12-29T16:57:03;7.75;;;2.22;;
44694;SDS011;32845;59.422;17.930;2022-12-29T17:01:35;3.80;;;2.28;;
44694;SDS011;32845;59.422;17.930;2022-12-29T17:06:10;7.30;;;2.10;;
44694;SDS011;32845;59.422;17.930;2022-12-29T17:10:45;7.93;;;2.60;;
44694;SDS011;32845;59.422;17.930;2022-12-29T17:15:34;10.25;;;2.75;;
44694;SDS011;32845;59.422;17.930;2022-12-29T17:20:26;5.47;;;2.60;;
44694;SDS011;32845;59.422;17.930;2022-12-29T17:24:59;9.02;;;2.40;;
44694;SDS011;32845;59.422;17.930;2022-12-29T17:29:38;13.05;;;2.95;;
44694;SDS011;32845;59.422;17.930;2022-12-29T17:34:11;10.40;;;3.13;;
44694;SDS011;32845;59.422;17.930;2022-12-29T17:38:43;6.20;;;2.17;;
44694;SDS011;32845;59.422;17.930;2022-12-29T17:43:14;10.35;;;2.78;;
44694;SDS011;32845;59.422;17.930;2022-12-29T17:47:51;8.90;;;2.40;;
44694;SDS011;32845;59.422;17.930;2022-12-29T17:52:21;3.95;;;1.73;;
44694;SDS011;32845;59.422;17.930;2022-12-29T17:56:52;4.82;;;2.22;;
44694;SDS011;32845;59.422;17.930;2022-12-29T18:01:28;4.15;;;1.98;;
44694;SDS011;32845;59.422;17.930;2022-12-29T18:06:00;8.57;;;2.30;;
44694;SDS011;32845;59.422;17.930;2022-12-29T18:10:34;9.50;;;2.47;;
44694;SDS011;32845;59.422;17.930;2022-12-29T18:15:06;6.80;;;1.77;;
44694;SDS011;32845;59.422;17.930;2022-12-29T18:19:46;5.60;;;1.95;;
44694;SDS011;32845;59.422;17.930;2022-12-29T18:24:16;8.20;;;2.30;;
44694;SDS011;32845;59.422;17.930;2022-12-29T18:28:47;10.55;;;2.42;;
44694;SDS011;32845;59.422;17.930;2022-12-29T18:33:19;9.60;;;2.58;;
44694;SDS011;32845;59.422;17.930;2022-12-29T18:37:51;4.95;;;2.10;;
44694;SDS011;32845;59.422;17.930;2022-12-29T18:42:21;6.40;;;1.95;;
44694;SDS011;32845;59.422;17.930;2022-12-29T18:46:52;4.93;;;1.80;;
44694;SDS011;32845;59.422;17.930;2022-12-29T18:51:32;8.60;;;1.88;;
44694;SDS011;32845;59.422;17.930;2022-12-29T19:00:36;8.45;;;2.28;;
44694;SDS011;32845;59.422;17.930;2022-12-29T19:05:21;5.60;;;1.73;;
44694;SDS011;32845;59.422;17.930;2022-12-29T19:10:00;3.80;;;1.75;;
44694;SDS011;32845;59.422;17.930;2022-12-29T19:14:30;5.82;;;2.20;;
44694;SDS011;32845;59.422;17.930;2022-12-29T19:19:01;4.97;;;1.92;;
44694;SDS011;32845;59.422;17.930;2022-12-29T19:23:33;4.82;;;1.95;;
44694;SDS011;32845;59.422;17.930;2022-12-29T19:28:04;6.18;;;1.90;;
44694;SDS011;32845;59.422;17.930;2022-12-29T19:32:36;12.25;;;2.10;;
44694;SDS011;32845;59.422;17.930;2022-12-29T19:37:07;5.03;;;2.20;;
44694;SDS011;32845;59.422;17.930;2022-12-29T19:41:37;6.70;;;2.03;;
44694;SDS011;32845;59.422;17.930;2022-12-29T19:46:09;8.15;;;1.83;;
44694;SDS011;32845;59.422;17.930;2022-12-29T19:50:40;3.80;;;1.60;;
44694;SDS011;32845;59.422;17.930;2022-12-29T19:55:13;7.95;;;1.70;;
44694;SDS011;32845;59.422;17.930;2022-12-29T19:59:45;3.75;;;1.60;;
44694;SDS011;32845;59.422;17.930;2022-12-29T20:04:16;4.82;;;1.42;;
44694;SDS011;32845;59.422;17.930;2022-12-29T20:08:51;5.95;;;1.98;;
44694;SDS011;32845;59.422;17.930;2022-12-29T20:13:23;6.90;;;1.40;;
44694;SDS011;32845;59.422;17.930;2022-12-29T20:17:54;4.68;;;1.25;;
44694;SDS011;32845;59.422;17.930;2022-12-29T20:22:25;7.43;;;1.55;;
44694;SDS011;32845;59.422;17.930;2022-12-29T20:26:56;3.83;;;1.08;;
44694;SDS011;32845;59.422;17.930;2022-12-29T20:31:29;6.38;;;1.27;;
44694;SDS011;32845;59.422;17.930;2022-12-29T20:36:09;5.72;;;1.60;;
44694;SDS011;32845;59.422;17.930;2022-12-29T20:40:44;5.53;;;1.25;;
44694;SDS011;32845;59.422;17.930;2022-12-29T20:45:17;8.70;;;1.42;;
44694;SDS011;32845;59.422;17.930;2022-12-29T20:49:48;9.77;;;1.67;;
44694;SDS011;32845;59.422;17.930;2022-12-29T20:54:19;6.90;;;1.35;;
44694;SDS011;32845;59.422;17.930;2022-12-29T20:58:51;7.05;;;1.15;;
44694;SDS011;32845;59.422;17.930;2022-12-29T21:03:23;4.82;;;1.08;;
44694;SDS011;32845;59.422;17.930;2022-12-29T21:07:54;7.43;;;1.20;;
44694;SDS011;32845;59.422;17.930;2022-12-29T21:12:28;4.97;;;1.40;;
44694;SDS011;32845;59.422;17.930;2022-12-29T21:16:59;6.60;;;2.28;;
44694;SDS011;32845;59.422;17.930;2022-12-29T21:21:29;7.82;;;1.40;;
44694;SDS011;32845;59.422;17.930;2022-12-29T21:26:00;9.25;;;1.95;;
44694;SDS011;32845;59.422;17.930;2022-12-29T21:30:31;8.32;;;1.65;;
44694;SDS011;32845;59.422;17.930;2022-12-29T21:35:03;7.95;;;1.50;;
44694;SDS011;32845;59.422;17.930;2022-12-29T21:39:39;12.65;;;2.15;;
44694;SDS011;32845;59.422;17.930;2022-12-29T21:44:10;5.80;;;1.80;;
44694;SDS011;32845;59.422;17.930;2022-12-29T21:48:59;5.15;;;1.30;;
44694;SDS011;32845;59.422;17.930;2022-12-29T21:53:31;12.23;;;1.70;;
44694;SDS011;32845;59.422;17.930;2022-12-29T21:58:14;4.65;;;1.17;;
44694;SDS011;32845;59.422;17.930;2022-12-29T22:03:03;5.97;;;1.27;;
44694;SDS011;32845;59.422;17.930;2022-12-29T22:07:53;9.20;;;1.40;;
44694;SDS011;32845;59.422;17.930;2022-12-29T22:12:42;11.50;;;1.50;;
44694;SDS011;32845;59.422;17.930;2022-12-29T22:17:32;5.90;;;1.20;;
44694;SDS011;32845;59.422;17.930;2022-12-29T22:22:02;8.43;;;1.10;;
44694;SDS011;32845;59.422;17.930;2022-12-29T22:26:33;5.85;;;0.82;;
44694;SDS011;32845;59.422;17.930;2022-12-29T22:31:04;4.03;;;0.90;;
44694;SDS011;32845;59.422;17.930;2022-12-29T22:35:36;13.75;;;1.13;;
44694;SDS011;32845;59.422;17.930;2022-12-29T22:40:07;5.18;;;1.08;;
44694;SDS011;32845;59.422;17.930;2022-12-29T22:44:39;12.77;;;1.55;;
44694;SDS011;32845;59.422;17.930;2022-12-29T22:49:10;3.55;;;1.13;;
44694;SDS011;32845;59.422;17.930;2022-12-29T22:53:41;8.63;;;1.63;;
44694;SDS011;32845;59.422;17.930;2022-12-29T22:58:12;2.47;;;0.70;;
44694;SDS011;32845;59.422;17.930;2022-12-29T23:02:42;12.25;;;1.10;;
44694;SDS011;32845;59.422;17.930;2022-12-29T23:07:13;4.00;;;1.15;;
44694;SDS011;32845;59.422;17.930;2022-12-29T23:11:44;4.22;;;1.25;;
44694;SDS011;32845;59.422;17.930;2022-12-29T23:16:15;3.60;;;0.82;;
44694;SDS011;32845;59.422;17.930;2022-12-29T23:20:47;8.77;;;1.35;;
44694;SDS011;32845;59.422;17.930;2022-12-29T23:25:18;11.85;;;1.13;;
44694;SDS011;32845;59.422;17.930;2022-12-29T23:29:48;8.10;;;0.95;;
44694;SDS011;32845;59.422;17.930;2022-12-29T23:34:19;5.20;;;0.90;;
44694;SDS011;32845;59.422;17.930;2022-12-29T23:38:50;6.53;;;1.08;;
44694;SDS011;32845;59.422;17.930;2022-12-29T23:43:21;6.00;;;0.90;;
44694;SDS011;32845;59.422;17.930;2022-12-29T23:47:52;4.45;;;1.00;;
44694;SDS011;32845;59.422;17.930;2022-12-29T23:52:22;3.53;;;1.00;;
44694;SDS011;32845;59.422;17.930;2022-12-29T23:56:53;6.10;;;1.10;;
